Time;durP1;ratioP1;P1;durP2;ratioP2;P2;SDS_P1;SDS_P2;PMS_P1;PMS_P2;Temp;Humidity;BMP_temperature;BMP_pressure;BME280_temperature;BME280_humidity;BME280_pressure;Samples;Min_cycle;Max_cycle;Signal;HPM_P1;HPM_P2
2021/11/22 00:00:30;;;;;;;13.60;12.20;;;6.60;99.90;;;;;;6325374;27;20475;-62
2021/11/22 00:03:34;;;;;;;15.60;12.03;;;6.60;99.90;;;;;;6324135;28;20964;-62
2021/11/22 00:06:37;;;;;;;13.40;11.80;;;6.50;99.90;;;;;;6324661;28;20854;-62
2021/11/22 00:09:40;;;;;;;13.30;12.00;;;6.50;99.90;;;;;;6324862;28;20472;-62
2021/11/22 00:12:46;;;;;;;14.13;12.50;;;6.50;99.90;;;;;;6324823;28;20464;-65
2021/11/22 00:15:51;;;;;;;13.90;12.37;;;6.50;99.90;;;;;;6324479;28;20475;-65
2021/11/22 00:18:55;;;;;;;15.13;12.80;;;6.60;99.90;;;;;;6325132;28;20464;-66
2021/11/22 00:21:58;;;;;;;17.33;12.80;;;6.60;99.90;;;;;;6323950;28;20464;-65
2021/11/22 00:25:02;;;;;;;15.03;13.47;;;6.60;99.90;;;;;;6324785;28;20460;-64
2021/11/22 00:28:06;;;;;;;13.93;12.40;;;6.60;99.90;;;;;;6324105;28;20843;-64
2021/11/22 00:31:09;;;;;;;14.40;11.83;;;6.50;99.90;;;;;;6324832;28;20980;-66
2021/11/22 00:34:13;;;;;;;14.77;12.47;;;6.60;99.90;;;;;;6324659;28;20479;-66
2021/11/22 00:37:20;;;;;;;15.00;12.17;;;6.60;99.90;;;;;;6324129;28;20990;-66
2021/11/22 00:40:23;;;;;;;13.43;11.97;;;6.50;99.90;;;;;;6324657;28;20468;-65
2021/11/22 00:43:27;;;;;;;16.90;13.23;;;6.60;99.90;;;;;;6324282;28;20956;-65
2021/11/22 00:46:31;;;;;;;17.07;12.17;;;6.60;99.90;;;;;;6315877;28;20480;-65
2021/11/22 00:49:35;;;;;;;15.20;13.00;;;6.50;99.90;;;;;;6304622;28;20549;-66
2021/11/22 00:52:38;;;;;;;14.53;12.23;;;6.50;99.90;;;;;;6319662;27;20476;-65
2021/11/22 00:55:42;;;;;;;17.80;12.60;;;6.50;99.90;;;;;;6321209;28;20468;-68
2021/11/22 00:58:46;;;;;;;15.57;13.50;;;6.50;99.90;;;;;;6322087;28;20472;-68
2021/11/22 01:01:50;;;;;;;16.00;13.47;;;6.50;99.90;;;;;;6321606;28;20483;-68
2021/11/22 01:04:54;;;;;;;18.77;13.93;;;6.60;99.90;;;;;;6321007;28;20568;-65
2021/11/22 01:07:57;;;;;;;17.83;14.80;;;6.50;99.90;;;;;;6320463;28;20484;-66
2021/11/22 01:11:00;;;;;;;17.40;14.50;;;6.60;99.90;;;;;;6321575;28;20483;-66
2021/11/22 01:14:06;;;;;;;15.60;12.27;;;6.60;99.90;;;;;;6320143;28;20472;-65
2021/11/22 01:17:09;;;;;;;16.53;13.40;;;6.60;99.90;;;;;;6320356;28;20487;-66
2021/11/22 01:20:15;;;;;;;16.90;14.33;;;6.60;99.90;;;;;;6320171;28;20479;-69
2021/11/22 01:23:18;;;;;;;20.53;14.70;;;6.60;99.90;;;;;;6322247;28;20956;-68
2021/11/22 01:26:22;;;;;;;23.87;15.87;;;6.60;99.90;;;;;;6322273;28;21985;-69
2021/11/22 01:29:26;;;;;;;20.40;15.10;;;6.50;99.90;;;;;;6324031;28;21069;-65
2021/11/22 01:32:30;;;;;;;21.13;13.53;;;6.50;99.90;;;;;;6324337;28;20479;-65
2021/11/22 01:35:33;;;;;;;18.33;14.03;;;6.40;99.90;;;;;;6323599;28;20483;-65
2021/11/22 01:38:36;;;;;;;20.10;14.47;;;6.50;99.90;;;;;;6323719;27;20502;-65
2021/11/22 01:41:40;;;;;;;19.53;16.20;;;6.50;99.90;;;;;;6327883;28;20460;-68
2021/11/22 01:44:45;;;;;;;24.27;14.93;;;6.50;99.90;;;;;;6334253;28;20440;-68
2021/11/22 01:47:49;;;;;;;22.20;15.90;;;6.50;99.90;;;;;;6329476;28;20936;-67
2021/11/22 01:50:53;;;;;;;23.17;16.43;;;6.50;99.90;;;;;;6326719;28;20452;-68
2021/11/22 01:53:56;;;;;;;26.30;16.63;;;6.50;99.90;;;;;;6296770;28;20876;-66
2021/11/22 01:57:00;;;;;;;27.20;16.20;;;6.50;99.90;;;;;;6305148;28;20847;-66
2021/11/22 02:00:08;;;;;;;28.57;18.53;;;6.50;99.90;;;;;;6302908;28;20457;-68
2021/11/22 02:03:12;;;;;;;20.67;16.17;;;6.50;99.90;;;;;;6303099;28;20778;-68
2021/11/22 02:06:15;;;;;;;24.43;16.63;;;6.50;99.90;;;;;;6302815;28;20480;-67
2021/11/22 02:09:18;;;;;;;22.87;16.17;;;6.50;99.90;;;;;;6303437;28;20477;-66
2021/11/22 02:12:22;;;;;;;25.50;16.10;;;6.50;99.90;;;;;;6304114;28;20469;-65
2021/11/22 02:15:26;;;;;;;21.97;15.83;;;6.60;99.90;;;;;;6302982;28;20522;-66
2021/11/22 02:18:29;;;;;;;20.50;15.60;;;6.60;99.90;;;;;;6302608;28;20473;-66
2021/11/22 02:21:34;;;;;;;23.23;16.03;;;6.60;99.90;;;;;;6302449;28;20468;-67
2021/11/22 02:24:37;;;;;;;24.43;15.03;;;6.70;99.90;;;;;;6302973;28;20465;-68
2021/11/22 02:27:45;;;;;;;23.70;17.17;;;6.70;99.90;;;;;;6302429;28;20538;-68
2021/11/22 02:30:51;;;;;;;17.53;13.80;;;6.80;99.90;;;;;;6302244;28;20963;-68
2021/11/22 02:33:55;;;;;;;26.50;15.97;;;6.80;99.90;;;;;;6302129;28;20477;-68
2021/11/22 02:37:00;;;;;;;22.07;14.70;;;6.80;99.90;;;;;;6301752;28;20492;-68
2021/11/22 02:40:05;;;;;;;20.40;14.07;;;6.80;99.90;;;;;;6301808;28;20476;-67
2021/11/22 02:43:09;;;;;;;20.50;14.70;;;6.80;99.90;;;;;;6302530;28;20476;-69
2021/11/22 02:46:12;;;;;;;21.40;14.67;;;6.80;99.90;;;;;;6301728;28;20485;-68
2021/11/22 02:49:15;;;;;;;24.10;16.70;;;6.70;99.90;;;;;;6302760;28;20475;-68
2021/11/22 02:52:20;;;;;;;22.27;15.93;;;6.80;99.90;;;;;;6300752;28;20480;-68
2021/11/22 02:55:23;;;;;;;20.87;14.77;;;6.80;99.90;;;;;;6302289;28;20945;-68
2021/11/22 02:58:27;;;;;;;20.00;15.53;;;6.80;99.90;;;;;;6298531;28;20940;-66
2021/11/22 03:01:31;;;;;;;22.63;15.03;;;6.70;99.90;;;;;;6302560;28;20492;-66
2021/11/22 03:04:35;;;;;;;19.57;15.27;;;6.70;99.90;;;;;;6304095;28;20526;-66
2021/11/22 03:07:40;;;;;;;24.27;16.27;;;6.70;99.90;;;;;;6304053;28;20469;-68
2021/11/22 03:10:43;;;;;;;24.53;14.10;;;6.70;99.90;;;;;;6301371;28;20469;-69
2021/11/22 03:13:48;;;;;;;20.10;15.00;;;6.80;99.90;;;;;;6301131;28;20480;-69
2021/11/22 03:16:51;;;;;;;20.53;15.00;;;6.80;99.90;;;;;;6301171;28;20965;-69
2021/11/22 03:19:54;;;;;;;20.13;15.07;;;6.90;99.90;;;;;;6301541;28;20988;-69
2021/11/22 03:22:59;;;;;;;25.07;15.30;;;6.90;99.90;;;;;;6301126;28;20484;-69
2021/11/22 03:26:03;;;;;;;21.00;14.53;;;6.90;99.90;;;;;;6301074;28;20484;-67
2021/11/22 03:29:06;;;;;;;19.57;14.17;;;6.90;99.90;;;;;;6300890;28;20483;-66
2021/11/22 03:32:10;;;;;;;20.73;14.67;;;6.90;99.90;;;;;;6300512;28;20469;-66
2021/11/22 03:35:14;;;;;;;21.10;16.00;;;6.90;99.90;;;;;;6300623;28;20465;-67
2021/11/22 03:38:20;;;;;;;25.00;16.63;;;7.00;99.90;;;;;;6300317;28;20481;-69
2021/11/22 03:41:25;;;;;;;24.63;16.40;;;7.00;99.90;;;;;;6300684;28;20480;-68
2021/11/22 03:44:28;;;;;;;23.87;16.10;;;7.00;99.90;;;;;;6300412;28;20552;-68
2021/11/22 03:47:31;;;;;;;26.00;15.70;;;6.90;99.90;;;;;;6300541;28;20477;-68
2021/11/22 03:50:34;;;;;;;25.77;15.20;;;7.00;99.90;;;;;;6300856;28;20972;-68
2021/11/22 03:53:39;;;;;;;21.10;14.33;;;7.00;99.90;;;;;;6300071;28;20484;-68
2021/11/22 03:56:43;;;;;;;20.90;15.90;;;7.00;99.90;;;;;;6299955;28;20496;-69
2021/11/22 03:59:46;;;;;;;23.03;15.87;;;7.00;99.90;;;;;;6300337;28;20438;-68
2021/11/22 04:02:49;;;;;;;21.73;15.07;;;6.90;99.90;;;;;;6290698;28;20456;-68
2021/11/22 04:05:53;;;;;;;22.63;16.00;;;7.00;99.90;;;;;;6300015;28;20777;-68
2021/11/22 04:08:58;;;;;;;25.03;16.30;;;7.00;99.90;;;;;;6300552;28;20460;-69
2021/11/22 04:12:01;;;;;;;22.70;15.67;;;7.00;99.90;;;;;;6300454;28;20464;-66
2021/11/22 04:15:06;;;;;;;20.10;15.27;;;7.00;99.90;;;;;;6300040;28;20480;-67
2021/11/22 04:18:10;;;;;;;20.93;15.73;;;7.00;99.90;;;;;;6300396;28;20820;-66
2021/11/22 04:21:15;;;;;;;26.10;16.60;;;7.00;99.90;;;;;;6299954;28;20855;-68
2021/11/22 04:24:19;;;;;;;18.83;14.60;;;7.10;99.90;;;;;;6299794;28;20572;-66
2021/11/22 04:27:22;;;;;;;20.03;14.30;;;7.00;99.90;;;;;;6299981;28;20473;-66
2021/11/22 04:30:26;;;;;;;20.50;14.13;;;7.10;99.90;;;;;;6299520;28;20472;-65
2021/11/22 04:33:29;;;;;;;23.57;15.53;;;7.00;99.90;;;;;;6301049;28;20984;-67
2021/11/22 04:36:32;;;;;;;24.57;15.60;;;7.00;99.90;;;;;;6300276;28;20783;-68
2021/11/22 04:39:37;;;;;;;22.10;14.70;;;7.10;99.90;;;;;;6300160;27;20477;-68
2021/11/22 04:42:45;;;;;;;21.13;15.60;;;7.10;99.90;;;;;;6300877;28;20943;-66
2021/11/22 04:45:48;;;;;;;23.47;15.50;;;7.10;99.90;;;;;;6300234;28;20537;-67
2021/11/22 04:48:51;;;;;;;21.70;16.00;;;7.10;99.90;;;;;;6299875;28;20461;-67
2021/11/22 04:51:54;;;;;;;21.67;15.70;;;7.10;99.90;;;;;;6299446;28;20487;-68
2021/11/22 04:54:59;;;;;;;23.93;16.07;;;7.10;99.90;;;;;;6299666;28;20465;-68
2021/11/22 04:58:03;;;;;;;21.93;15.77;;;7.10;99.90;;;;;;6299027;28;20488;-68
2021/11/22 05:01:06;;;;;;;25.33;14.93;;;7.10;99.90;;;;;;6299412;28;20981;-68
2021/11/22 05:04:10;;;;;;;23.23;15.67;;;7.10;99.90;;;;;;6299650;28;20493;-68
2021/11/22 05:07:13;;;;;;;20.90;14.97;;;7.10;99.90;;;;;;6295335;28;20481;-68
2021/11/22 05:10:19;;;;;;;19.27;16.03;;;7.10;99.90;;;;;;6299724;28;20860;-68
2021/11/22 05:13:23;;;;;;;22.17;15.00;;;7.20;99.90;;;;;;6300411;28;20492;-67
2021/11/22 05:16:26;;;;;;;25.00;16.37;;;7.20;99.90;;;;;;6303249;28;20487;-68
2021/11/22 05:19:32;;;;;;;17.67;13.87;;;7.20;99.90;;;;;;6303838;28;20476;-68
2021/11/22 05:22:35;;;;;;;23.10;13.90;;;7.20;99.90;;;;;;6300843;28;20472;-68
2021/11/22 05:25:40;;;;;;;22.53;14.80;;;7.20;99.90;;;;;;6303242;28;20973;-68
2021/11/22 05:28:43;;;;;;;22.73;15.77;;;7.20;99.90;;;;;;6303739;28;20919;-68
2021/11/22 05:31:46;;;;;;;18.47;15.27;;;7.20;99.90;;;;;;6303607;28;20770;-68
2021/11/22 05:34:55;;;;;;;20.53;15.07;;;7.30;99.90;;;;;;6303708;28;20465;-68
2021/11/22 05:37:58;;;;;;;25.93;16.60;;;7.30;99.90;;;;;;6303006;28;20796;-68
2021/11/22 05:41:03;;;;;;;29.27;17.60;;;7.20;99.90;;;;;;6303869;28;20461;-68
2021/11/22 05:44:06;;;;;;;23.43;16.70;;;7.20;99.90;;;;;;6303189;28;20465;-68
2021/11/22 05:47:11;;;;;;;25.27;17.50;;;7.10;99.90;;;;;;6303550;28;20477;-68
2021/11/22 05:50:15;;;;;;;25.80;17.50;;;7.10;99.90;;;;;;6307912;28;20523;-68
2021/11/22 05:53:20;;;;;;;23.50;18.00;;;7.10;99.90;;;;;;6304215;28;20491;-67
2021/11/22 05:56:24;;;;;;;23.00;15.07;;;7.20;99.90;;;;;;6303209;28;20488;-68
2021/11/22 05:59:28;;;;;;;21.83;16.10;;;7.10;99.90;;;;;;6303248;28;21002;-68
2021/11/22 06:02:31;;;;;;;23.23;16.27;;;7.10;99.90;;;;;;6303651;28;20461;-68
2021/11/22 06:05:35;;;;;;;23.60;16.90;;;7.20;99.90;;;;;;6302931;28;21214;-68
2021/11/22 06:08:39;;;;;;;24.07;16.90;;;7.20;99.90;;;;;;6303108;28;20476;-68
2021/11/22 06:11:44;;;;;;;24.27;16.60;;;7.20;99.90;;;;;;6302644;28;20479;-68
2021/11/22 06:14:47;;;;;;;22.93;16.80;;;7.20;99.90;;;;;;6303048;28;20454;-68
2021/11/22 06:17:51;;;;;;;27.40;17.83;;;7.20;99.90;;;;;;6301887;28;20480;-68
2021/11/22 06:20:54;;;;;;;23.17;15.57;;;7.20;99.90;;;;;;6302151;28;20784;-68
2021/11/22 06:23:59;;;;;;;24.00;15.63;;;7.20;99.90;;;;;;6299674;28;20513;-68
2021/11/22 06:27:04;;;;;;;22.43;15.60;;;7.20;99.90;;;;;;6301813;28;20544;-68
2021/11/22 06:30:08;;;;;;;21.23;15.40;;;7.20;99.90;;;;;;6301348;28;20489;-66
2021/11/22 06:33:11;;;;;;;18.40;14.87;;;7.20;99.90;;;;;;6302600;28;20788;-65
2021/11/22 06:36:14;;;;;;;23.23;16.23;;;7.20;99.90;;;;;;6301633;28;20473;-65
2021/11/22 06:39:17;;;;;;;23.10;17.80;;;7.30;99.90;;;;;;6300642;28;20465;-65
2021/11/22 06:42:22;;;;;;;20.00;15.83;;;7.30;99.90;;;;;;6300758;28;20477;-65
2021/11/22 06:45:25;;;;;;;23.00;15.43;;;7.30;99.90;;;;;;6300705;28;20478;-65
2021/11/22 06:48:28;;;;;;;21.40;16.30;;;7.30;99.90;;;;;;6300716;28;20483;-65
2021/11/22 06:51:31;;;;;;;20.40;15.17;;;7.30;99.90;;;;;;6300513;28;20488;-65
2021/11/22 06:54:35;;;;;;;23.23;16.13;;;7.30;99.90;;;;;;6301451;28;20548;-65
2021/11/22 06:57:39;;;;;;;20.23;16.03;;;7.30;99.90;;;;;;6301633;28;20484;-65
2021/11/22 07:00:43;;;;;;;22.00;16.20;;;7.30;99.90;;;;;;6301410;28;20477;-65
2021/11/22 07:03:46;;;;;;;29.97;17.60;;;7.30;99.90;;;;;;6301494;28;20472;-65
2021/11/22 07:06:51;;;;;;;22.93;16.80;;;7.40;99.90;;;;;;6301665;28;20473;-65
2021/11/22 07:09:54;;;;;;;22.93;16.03;;;7.40;99.90;;;;;;6300966;28;20832;-67
2021/11/22 07:12:59;;;;;;;20.30;15.10;;;7.40;99.90;;;;;;6301100;28;20465;-65
2021/11/22 07:16:02;;;;;;;21.97;17.60;;;7.50;99.90;;;;;;6291887;28;20484;-65
2021/11/22 07:19:06;;;;;;;21.30;16.13;;;7.50;99.90;;;;;;6301541;28;20492;-65
2021/11/22 07:22:11;;;;;;;26.17;16.77;;;7.50;99.90;;;;;;6312950;28;20794;-65
2021/11/22 07:25:14;;;;;;;24.13;16.63;;;7.50;99.90;;;;;;6325835;28;20472;-65
2021/11/22 07:28:18;;;;;;;27.40;16.77;;;7.50;99.90;;;;;;6326353;28;20478;-65
2021/11/22 07:31:22;;;;;;;25.23;17.13;;;7.50;99.90;;;;;;6326026;28;20468;-65
2021/11/22 07:34:25;;;;;;;25.73;16.07;;;7.50;99.90;;;;;;6325909;28;20475;-67
2021/11/22 07:37:28;;;;;;;23.10;16.23;;;7.50;99.90;;;;;;6325100;28;20480;-66
2021/11/22 07:40:32;;;;;;;24.63;17.17;;;7.50;99.90;;;;;;6325891;28;20468;-66
2021/11/22 07:43:36;;;;;;;25.30;18.63;;;7.50;99.90;;;;;;6325757;28;20483;-66
2021/11/22 07:46:40;;;;;;;23.43;16.27;;;7.50;99.90;;;;;;6326060;28;20487;-67
2021/11/22 07:49:43;;;;;;;22.00;17.47;;;7.50;99.90;;;;;;6325853;28;20479;-66
2021/11/22 07:52:47;;;;;;;30.87;19.10;;;7.60;99.90;;;;;;6324255;28;20759;-67
2021/11/22 07:55:50;;;;;;;25.57;17.73;;;7.60;99.90;;;;;;6321760;28;20472;-65
2021/11/22 07:58:54;;;;;;;28.33;17.93;;;7.60;99.90;;;;;;6323932;28;20479;-65
2021/11/22 08:02:00;;;;;;;22.93;16.80;;;7.70;99.90;;;;;;6324847;28;20469;-65
2021/11/22 08:05:04;;;;;;;26.70;17.20;;;7.70;99.90;;;;;;6320106;28;20533;-65
2021/11/22 08:08:07;;;;;;;29.63;16.70;;;7.70;99.90;;;;;;6324461;28;20476;-68
2021/11/22 08:11:30;;;;;;;24.70;18.10;;;7.70;99.90;;;;;;6324450;28;20475;-67
2021/11/22 08:14:34;;;;;;;26.00;18.60;;;7.80;99.90;;;;;;6322710;28;20472;-67
2021/11/22 08:17:42;;;;;;;24.43;17.97;;;7.80;99.90;;;;;;6324473;28;20514;-65
2021/11/22 08:20:45;;;;;;;27.10;19.47;;;7.90;99.90;;;;;;6321453;28;20467;-66
2021/11/22 08:23:49;;;;;;;29.37;20.67;;;7.90;99.90;;;;;;6324940;28;20444;-66
2021/11/22 08:26:52;;;;;;;27.97;19.03;;;7.90;99.90;;;;;;6324544;28;20793;-64
2021/11/22 08:29:57;;;;;;;30.90;18.27;;;8.00;99.90;;;;;;6324885;28;20448;-64
2021/11/22 08:33:01;;;;;;;26.20;19.37;;;7.90;99.90;;;;;;6325578;28;20440;-64
2021/11/22 08:36:04;;;;;;;26.60;17.33;;;8.00;99.90;;;;;;6327076;28;21705;-65
2021/11/22 08:39:07;;;;;;;31.23;19.97;;;8.00;99.90;;;;;;6324748;28;20479;-63
2021/11/22 08:42:11;;;;;;;25.53;18.20;;;8.10;99.90;;;;;;6325173;28;20467;-66
2021/11/22 08:45:16;;;;;;;25.63;19.37;;;8.20;99.90;;;;;;6325128;28;20475;-66
2021/11/22 08:48:21;;;;;;;24.30;18.27;;;8.20;99.90;;;;;;6324957;28;20468;-65
2021/11/22 08:51:24;;;;;;;29.90;20.33;;;8.30;99.90;;;;;;6329334;28;20982;-65
2021/11/22 08:54:28;;;;;;;26.17;19.63;;;8.20;99.90;;;;;;6329614;28;20472;-67
2021/11/22 08:57:31;;;;;;;29.40;19.33;;;8.30;99.90;;;;;;6330428;28;20479;-66
2021/11/22 09:00:38;;;;;;;26.63;18.73;;;8.30;99.90;;;;;;6329672;28;20472;-66
2021/11/22 09:03:42;;;;;;;31.87;19.57;;;8.30;99.90;;;;;;6331084;28;21042;-65
2021/11/22 09:06:45;;;;;;;29.17;20.00;;;8.30;99.90;;;;;;6329430;28;20475;-64
2021/11/22 09:09:48;;;;;;;32.13;22.90;;;8.40;99.90;;;;;;6327938;28;20478;-64
2021/11/22 09:12:52;;;;;;;34.67;21.57;;;8.40;99.90;;;;;;6329569;28;21392;-64
2021/11/22 09:15:57;;;;;;;31.00;19.53;;;8.50;99.90;;;;;;6330108;28;20480;-65
2021/11/22 09:19:02;;;;;;;30.20;20.80;;;8.60;99.90;;;;;;6330167;28;20499;-64
2021/11/22 09:22:10;;;;;;;30.10;20.40;;;8.60;99.90;;;;;;6329199;28;20474;-64
2021/11/22 09:25:13;;;;;;;29.63;20.33;;;8.60;99.90;;;;;;6327048;27;20479;-65
2021/11/22 09:28:17;;;;;;;27.97;18.80;;;8.80;99.90;;;;;;6328044;28;20464;-65
2021/11/22 09:31:22;;;;;;;27.07;18.60;;;9.00;99.90;;;;;;6327772;28;20859;-63
2021/11/22 09:34:25;;;;;;;29.63;19.00;;;9.10;99.90;;;;;;6327121;28;21172;-65
2021/11/22 09:37:28;;;;;;;24.67;18.57;;;9.20;99.90;;;;;;6327116;28;20558;-65
2021/11/22 09:40:33;;;;;;;31.50;21.20;;;9.20;99.90;;;;;;6326587;27;20476;-66
2021/11/22 09:43:42;;;;;;;29.50;19.00;;;9.20;99.90;;;;;;6327532;27;20810;-65
2021/11/22 09:46:47;;;;;;;25.33;18.43;;;9.20;99.90;;;;;;6301415;28;20484;-64
2021/11/22 09:49:53;;;;;;;29.60;17.70;;;9.20;99.90;;;;;;6302019;28;20480;-65
2021/11/22 09:52:57;;;;;;;27.23;18.30;;;9.20;99.90;;;;;;6301497;28;20770;-68
2021/11/22 09:56:01;;;;;;;29.17;19.00;;;9.10;99.90;;;;;;6301625;28;20468;-69
2021/11/22 09:59:04;;;;;;;29.50;18.43;;;9.00;99.90;;;;;;6301040;28;20788;-65
2021/11/22 10:02:09;;;;;;;33.37;19.10;;;8.80;99.90;;;;;;6314762;28;20472;-64
2021/11/22 10:05:24;;;;;;;31.07;18.20;;;8.70;99.90;;;;;;6325725;28;20472;-64
2021/11/22 10:08:28;;;;;;;22.77;16.13;;;8.70;99.90;;;;;;6324066;28;20960;-64
2021/11/22 10:11:32;;;;;;;36.00;18.60;;;8.60;99.90;;;;;;6326019;28;20460;-67
2021/11/22 10:14:40;;;;;;;32.63;18.67;;;8.60;99.90;;;;;;6325968;28;20475;-65
2021/11/22 10:17:48;;;;;;;24.87;18.23;;;8.50;99.90;;;;;;6326029;28;20498;-65
2021/11/22 10:20:53;;;;;;;26.27;17.50;;;8.40;99.90;;;;;;6325994;28;20913;-63
2021/11/22 10:24:01;;;;;;;27.23;18.30;;;8.50;99.90;;;;;;6326250;28;20535;-66
2021/11/22 10:27:06;;;;;;;31.03;18.63;;;8.50;99.90;;;;;;6317027;28;20491;-67
2021/11/22 10:30:22;;;;;;;38.43;19.93;;;8.60;99.90;;;;;;6328644;28;20557;-64
2021/11/22 10:33:30;;;;;;;31.20;17.97;;;8.60;99.90;;;;;;6325953;28;20473;-62
2021/11/22 10:36:38;;;;;;;32.83;20.07;;;8.60;99.90;;;;;;6325471;28;20486;-63
2021/11/22 10:39:42;;;;;;;28.73;18.23;;;8.70;99.90;;;;;;6325521;28;20475;-63
2021/11/22 10:42:45;;;;;;;26.97;19.57;;;8.80;99.90;;;;;;6324769;28;20464;-63
2021/11/22 10:45:50;;;;;;;31.43;19.37;;;8.80;99.90;;;;;;6325307;28;20469;-64
2021/11/22 10:49:09;;;;;;;26.60;17.73;;;8.90;99.90;;;;;;6325703;28;20814;-67
2021/11/22 10:52:16;;;;;;;27.90;18.33;;;8.90;99.90;;;;;;6325636;28;20476;-66
2021/11/22 10:55:19;;;;;;;29.67;19.47;;;8.70;99.90;;;;;;6322173;28;21006;-64
2021/11/22 10:58:41;;;;;;;21.00;17.30;;;8.70;99.90;;;;;;6324912;28;20483;-66
2021/11/22 11:01:47;;;;;;;26.17;19.07;;;8.70;99.90;;;;;;6324578;28;20477;-67
2021/11/22 11:04:52;;;;;;;26.23;17.33;;;8.50;99.90;;;;;;6325279;28;20471;-67
2021/11/22 11:07:59;;;;;;;25.40;18.30;;;8.40;99.90;;;;;;6325372;28;20476;-66
2021/11/22 11:11:09;;;;;;;28.60;17.80;;;8.30;99.90;;;;;;6325473;28;20468;-66
2021/11/22 11:14:15;;;;;;;25.60;18.27;;;8.30;99.90;;;;;;6323704;28;20491;-66
2021/11/22 11:17:21;;;;;;;22.67;17.50;;;8.40;99.90;;;;;;6322764;28;20479;-65
2021/11/22 11:20:26;;;;;;;25.60;19.50;;;8.20;99.90;;;;;;6326324;28;20816;-64
2021/11/22 11:23:29;;;;;;;24.57;17.50;;;8.20;99.90;;;;;;6324403;28;20475;-67
2021/11/22 11:26:34;;;;;;;30.63;20.20;;;8.20;99.90;;;;;;6324371;28;20483;-65
2021/11/22 11:29:38;;;;;;;21.70;17.73;;;8.10;99.90;;;;;;6324243;28;20468;-65
2021/11/22 11:32:41;;;;;;;24.73;17.40;;;8.10;99.90;;;;;;6314784;28;20472;-65
2021/11/22 11:35:48;;;;;;;20.90;16.83;;;8.10;99.90;;;;;;6323751;28;20982;-67
2021/11/22 11:39:03;;;;;;;24.27;18.20;;;8.10;99.90;;;;;;6320630;28;20488;-67
2021/11/22 11:42:16;;;;;;;26.37;17.93;;;8.10;99.90;;;;;;6324206;28;20457;-66
2021/11/22 11:45:26;;;;;;;23.47;18.13;;;8.20;99.90;;;;;;6324304;28;20557;-68
2021/11/22 11:48:38;;;;;;;27.20;18.73;;;8.20;99.90;;;;;;6323856;28;20483;-67
2021/11/22 11:51:46;;;;;;;28.90;19.30;;;8.20;99.90;;;;;;6324064;28;20508;-68
2021/11/22 11:54:55;;;;;;;29.97;19.20;;;8.30;99.90;;;;;;6322842;28;20983;-68
2021/11/22 11:58:24;;;;;;;25.37;17.67;;;8.40;99.90;;;;;;6323505;28;20464;-68
2021/11/22 12:01:27;;;;;;;31.60;18.23;;;8.50;99.90;;;;;;6323325;28;20479;-68
2021/11/22 12:04:51;;;;;;;23.17;16.63;;;8.60;99.90;;;;;;6323382;28;20460;-68
2021/11/22 12:07:55;;;;;;;27.17;18.27;;;8.60;99.90;;;;;;6324115;28;20473;-67
2021/11/22 12:11:01;;;;;;;36.13;19.33;;;8.60;99.90;;;;;;6323561;28;20464;-66
2021/11/22 12:14:04;;;;;;;27.17;18.33;;;8.60;99.90;;;;;;6323343;28;20468;-64
2021/11/22 12:17:07;;;;;;;27.33;18.40;;;8.60;99.90;;;;;;6322668;28;20472;-65
2021/11/22 12:20:31;;;;;;;26.50;19.40;;;8.60;99.90;;;;;;6323687;28;20475;-65
2021/11/22 12:23:47;;;;;;;28.83;20.73;;;8.70;99.90;;;;;;6322070;28;20484;-65
2021/11/22 12:26:50;;;;;;;29.97;21.00;;;8.50;99.90;;;;;;6317714;28;20461;-66
2021/11/22 12:29:53;;;;;;;33.07;18.60;;;8.50;99.90;;;;;;6322228;28;20441;-67
2021/11/22 12:33:34;;;;;;;37.03;20.80;;;8.50;99.90;;;;;;6321856;28;20436;-68
2021/11/22 12:36:48;;;;;;;31.10;20.13;;;8.50;99.90;;;;;;6320447;28;20476;-68
2021/11/22 12:39:55;;;;;;;33.07;21.20;;;8.30;99.90;;;;;;6317955;28;20541;-67
2021/11/22 12:42:59;;;;;;;32.20;19.90;;;8.30;99.90;;;;;;6321868;28;20464;-66
2021/11/22 12:46:04;;;;;;;30.37;19.63;;;8.20;99.90;;;;;;6319032;28;20484;-66
2021/11/22 12:49:34;;;;;;;29.90;19.67;;;8.20;99.90;;;;;;6321603;28;20785;-67
2021/11/22 12:52:41;;;;;;;28.57;21.57;;;8.30;99.90;;;;;;6322431;28;20539;-67
2021/11/22 12:55:48;;;;;;;28.13;20.27;;;8.40;99.90;;;;;;6323500;28;20487;-67
2021/11/22 12:59:05;;;;;;;33.23;20.10;;;8.50;99.90;;;;;;6323115;28;20487;-67
2021/11/22 13:02:40;;;;;;;33.40;19.83;;;8.40;99.90;;;;;;6322723;28;20490;-67
2021/11/22 13:05:56;;;;;;;30.67;19.20;;;8.30;99.90;;;;;;6322626;28;20613;-68
2021/11/22 13:09:00;;;;;;;26.30;18.20;;;8.40;99.90;;;;;;6323736;28;20456;-68
2021/11/22 13:12:31;;;;;;;25.00;18.07;;;8.40;99.90;;;;;;6322518;28;21018;-68
2021/11/22 13:15:53;;;;;;;31.33;18.80;;;8.50;99.90;;;;;;6323008;28;20468;-68
2021/11/22 13:18:59;;;;;;;30.70;19.60;;;8.50;99.90;;;;;;6323097;28;20970;-67
2021/11/22 13:22:02;;;;;;;32.47;20.90;;;8.50;99.90;;;;;;6322737;28;20464;-68
2021/11/22 13:25:17;;;;;;;29.13;18.57;;;8.50;99.90;;;;;;6322777;28;20468;-67
2021/11/22 13:28:25;;;;;;;33.67;19.87;;;8.50;99.90;;;;;;6321856;28;20545;-67
2021/11/22 13:31:42;;;;;;;36.27;21.43;;;8.50;99.90;;;;;;6322203;28;20829;-68
2021/11/22 13:34:45;;;;;;;29.30;18.27;;;8.50;99.90;;;;;;6322349;28;20971;-66
2021/11/22 13:38:06;;;;;;;31.23;20.70;;;8.60;99.90;;;;;;6326717;28;20491;-65
2021/11/22 13:41:13;;;;;;;27.33;17.97;;;8.60;99.90;;;;;;6302405;28;20481;-64
2021/11/22 13:44:18;;;;;;;28.13;19.30;;;8.60;99.90;;;;;;6302017;28;20477;-65
2021/11/22 13:47:23;;;;;;;30.63;22.10;;;8.70;99.90;;;;;;6282671;28;20484;-64
2021/11/22 13:50:27;;;;;;;31.00;21.53;;;8.70;99.90;;;;;;6300694;28;20469;-67
2021/11/22 13:53:30;;;;;;;36.40;22.40;;;8.70;99.90;;;;;;6301324;28;20473;-67
2021/11/22 13:56:39;;;;;;;35.33;20.80;;;8.70;99.90;;;;;;6300217;28;20492;-66
2021/11/22 13:59:49;;;;;;;32.77;20.57;;;8.70;99.90;;;;;;6277530;28;20489;-65
2021/11/22 14:02:52;;;;;;;27.87;20.53;;;8.80;99.90;;;;;;6295879;28;20573;-64
2021/11/22 14:05:57;;;;;;;35.77;21.37;;;8.80;99.90;;;;;;6302542;28;20461;-65
2021/11/22 14:09:00;;;;;;;30.70;20.83;;;8.70;99.90;;;;;;6301815;28;20769;-64
2021/11/22 14:12:05;;;;;;;30.67;21.30;;;8.70;99.90;;;;;;6292382;28;20858;-65
2021/11/22 14:15:20;;;;;;;32.37;21.80;;;8.80;99.90;;;;;;6301231;28;20464;-65
2021/11/22 14:18:24;;;;;;;27.37;18.40;;;8.70;99.90;;;;;;6300251;28;20473;-64
2021/11/22 14:21:33;;;;;;;30.00;21.07;;;8.70;99.90;;;;;;6300850;28;20514;-64
2021/11/22 14:24:51;;;;;;;35.67;21.93;;;8.70;99.90;;;;;;6301004;28;20537;-64
2021/11/22 14:27:56;;;;;;;31.80;22.80;;;8.70;99.90;;;;;;6300673;28;20473;-64
2021/11/22 14:31:00;;;;;;;29.70;20.63;;;8.70;99.90;;;;;;6299124;28;20481;-64
2021/11/22 14:34:08;;;;;;;31.20;20.43;;;8.70;99.90;;;;;;6300869;28;20476;-64
2021/11/22 14:37:18;;;;;;;36.60;21.60;;;8.80;99.90;;;;;;6291139;28;20614;-64
2021/11/22 14:40:24;;;;;;;29.07;19.50;;;8.70;99.90;;;;;;6317933;28;20479;-64
2021/11/22 14:43:32;;;;;;;30.60;21.60;;;8.70;99.90;;;;;;6316754;28;20475;-64
2021/11/22 14:46:38;;;;;;;30.60;21.23;;;8.70;99.90;;;;;;6325435;28;20841;-64
2021/11/22 14:50:22;;;;;;;34.00;23.00;;;8.60;99.90;;;;;;6325545;28;20597;-64
2021/11/22 14:53:25;;;;;;;36.20;22.90;;;8.50;99.90;;;;;;6325929;28;20472;-63
2021/11/22 14:56:35;;;;;;;33.37;22.27;;;8.60;99.90;;;;;;6327449;28;21003;-63
2021/11/22 14:59:42;;;;;;;37.87;23.50;;;8.50;99.90;;;;;;6328269;28;20506;-63
2021/11/22 15:02:49;;;;;;;32.07;21.70;;;8.60;99.90;;;;;;6329530;28;20478;-63
2021/11/22 15:05:55;;;;;;;33.03;22.77;;;8.50;99.90;;;;;;6327849;28;20460;-63
2021/11/22 15:09:01;;;;;;;34.50;22.30;;;8.50;99.90;;;;;;6328301;28;20436;-63
2021/11/22 15:12:14;;;;;;;35.50;23.70;;;8.50;99.90;;;;;;6326213;28;20437;-63
2021/11/22 15:15:19;;;;;;;34.33;20.53;;;8.50;99.90;;;;;;6299609;28;20488;-63
2021/11/22 15:18:24;;;;;;;35.77;22.60;;;8.40;99.90;;;;;;6300480;28;20465;-63
2021/11/22 15:21:27;;;;;;;32.63;24.40;;;8.40;99.90;;;;;;6300039;28;20473;-65
2021/11/22 15:24:30;;;;;;;32.03;22.80;;;8.40;99.90;;;;;;6312144;28;20468;-65
2021/11/22 15:27:34;;;;;;;33.03;20.60;;;8.30;99.90;;;;;;6324368;28;20479;-64
2021/11/22 15:30:38;;;;;;;30.50;23.43;;;8.40;99.90;;;;;;6325833;28;20475;-63
2021/11/22 15:33:42;;;;;;;33.00;21.60;;;8.40;99.90;;;;;;6324616;28;20533;-66
2021/11/22 15:36:50;;;;;;;36.50;23.00;;;8.40;99.90;;;;;;6324009;28;20868;-65
2021/11/22 15:39:55;;;;;;;31.60;22.03;;;8.40;99.90;;;;;;6323142;28;20476;-64
2021/11/22 15:42:58;;;;;;;34.50;22.33;;;8.40;99.90;;;;;;6321950;28;20499;-65
2021/11/22 15:46:03;;;;;;;38.70;24.07;;;8.40;99.90;;;;;;6319620;28;20472;-67
2021/11/22 15:49:08;;;;;;;34.50;21.07;;;8.40;99.90;;;;;;6305623;28;20476;-63
2021/11/22 15:52:13;;;;;;;32.13;22.13;;;8.40;99.90;;;;;;6323569;28;20521;-66